createdAt,value
2019-05-30T00:00:07.742Z,16.42
2019-05-30T00:02:25.338Z,20.88
2019-05-30T00:04:54.078Z,19.05
2019-05-30T00:07:22.518Z,17.25
2019-05-30T00:09:50.914Z,18.98
2019-05-30T00:12:19.325Z,17.92
2019-05-30T00:14:48.028Z,15.03
2019-05-30T00:17:16.351Z,15.00
2019-05-30T00:19:44.745Z,16.50
2019-05-30T00:22:13.130Z,17.25
2019-05-30T00:24:41.523Z,15.78
2019-05-30T00:27:09.931Z,14.70
2019-05-30T00:29:38.309Z,15.08
2019-05-30T00:32:07.838Z,15.80
2019-05-30T00:34:36.240Z,16.27
2019-05-30T00:37:05.954Z,14.78
2019-05-30T00:39:34.475Z,13.72
2019-05-30T00:42:04.104Z,14.00
2019-05-30T00:44:32.645Z,14.60
2019-05-30T00:47:02.322Z,12.70
2019-05-30T00:49:32.052Z,14.85
2019-05-30T00:52:00.613Z,15.23
2019-05-30T00:54:29.254Z,16.82
2019-05-30T00:56:58.586Z,17.90
2019-05-30T00:59:27.212Z,16.57
2019-05-30T01:01:56.619Z,18.48
2019-05-30T01:04:25.023Z,15.45
2019-05-30T01:06:53.419Z,20.90
2019-05-30T01:09:21.827Z,25.17
2019-05-30T01:11:50.283Z,20.80
2019-05-30T01:14:18.921Z,18.42
2019-05-30T01:16:47.325Z,16.80
2019-05-30T01:19:15.942Z,19.37
2019-05-30T01:21:44.776Z,17.73
2019-05-30T01:24:13.411Z,18.27
2019-05-30T01:26:42.063Z,17.73
2019-05-30T01:29:10.698Z,20.10
2019-05-30T01:31:39.103Z,20.50
2019-05-30T01:34:07.982Z,15.58
2019-05-30T01:36:36.413Z,14.98
2019-05-30T01:39:07.994Z,11.53
2019-05-30T01:41:36.608Z,16.60
2019-05-30T01:44:06.106Z,22.27
2019-05-30T01:46:34.548Z,12.73
2019-05-30T01:49:04.296Z,11.25
2019-05-30T01:51:33.013Z,15.00
2019-05-30T01:54:02.567Z,16.17
2019-05-30T01:56:30.932Z,16.10
2019-05-30T01:59:00.360Z,15.98
2019-05-30T02:01:28.998Z,15.00
2019-05-30T02:03:58.893Z,15.25
2019-05-30T02:06:27.696Z,19.48
2019-05-30T02:08:56.129Z,18.82
2019-05-30T02:11:24.759Z,24.82
2019-05-30T02:13:53.391Z,23.73
2019-05-30T02:16:22.056Z,28.45
2019-05-30T02:18:50.410Z,19.98
2019-05-30T02:21:18.790Z,19.77
2019-05-30T02:23:47.455Z,22.77
2019-05-30T02:26:16.102Z,19.15
2019-05-30T02:28:44.495Z,26.97
2019-05-30T02:31:13.195Z,21.05
2019-05-30T02:33:41.606Z,16.30
2019-05-30T02:36:12.332Z,14.78
2019-05-30T02:38:40.359Z,19.62
2019-05-30T02:41:10.024Z,20.70
2019-05-30T02:43:39.106Z,20.25
2019-05-30T02:46:08.446Z,16.23
2019-05-30T02:48:57.289Z,14.23
2019-05-30T02:51:10.095Z,13.03
2019-05-30T02:53:38.073Z,12.50
2019-05-30T02:56:07.918Z,14.60
2019-05-30T02:58:36.725Z,14.07
2019-05-30T03:01:07.061Z,15.25
2019-05-30T03:03:35.302Z,24.82
2019-05-30T03:06:06.271Z,17.82
2019-05-30T03:08:34.472Z,20.05
2019-05-30T03:11:04.466Z,17.07
2019-05-30T03:13:33.111Z,16.87
2019-05-30T03:16:02.155Z,21.02
2019-05-30T03:18:31.309Z,22.70
2019-05-30T03:20:59.939Z,17.98
2019-05-30T03:23:28.336Z,20.90
2019-05-30T03:25:56.792Z,17.98
2019-05-30T03:28:25.455Z,17.52
2019-05-30T03:30:54.424Z,19.90
2019-05-30T03:33:38.054Z,22.80
2019-05-30T03:35:53.253Z,22.67
2019-05-30T03:38:21.592Z,26.15
2019-05-30T03:40:50.458Z,28.67
2019-05-30T03:43:18.913Z,33.55
2019-05-30T03:45:47.833Z,28.12
2019-05-30T03:48:18.310Z,28.75
2019-05-30T03:50:49.965Z,26.37
2019-05-30T03:53:18.951Z,26.45
2019-05-30T03:55:50.384Z,29.77
2019-05-30T03:58:22.073Z,36.00
2019-05-30T04:00:53.513Z,45.12
2019-05-30T04:03:30.507Z,57.80
2019-05-30T04:06:01.944Z,44.03
2019-05-30T04:08:33.459Z,43.95
2019-05-30T04:11:04.887Z,51.92
2019-05-30T04:13:39.232Z,40.28
2019-05-30T04:16:08.666Z,47.65
2019-05-30T04:18:37.168Z,55.38
2019-05-30T04:21:05.627Z,56.55
2019-05-30T04:23:34.043Z,41.68
2019-05-30T04:26:02.696Z,33.95
2019-05-30T04:28:31.064Z,38.40
2019-05-30T04:30:59.469Z,36.42
2019-05-30T04:33:33.174Z,49.25
2019-05-30T04:35:57.984Z,32.40
2019-05-30T04:38:26.386Z,28.75
2019-05-30T04:40:55.316Z,26.25
2019-05-30T04:43:23.963Z,31.35
2019-05-30T04:45:52.367Z,29.02
2019-05-30T04:48:21.413Z,46.10
2019-05-30T04:50:50.224Z,25.35
2019-05-30T04:53:20.719Z,42.58
2019-05-30T04:55:48.980Z,33.08
2019-05-30T04:58:18.696Z,29.80
2019-05-30T05:00:47.551Z,38.67
2019-05-30T05:03:19.081Z,33.20
2019-05-30T05:05:46.305Z,55.10
2019-05-30T05:08:15.832Z,87.20
2019-05-30T05:10:44.814Z,35.85
2019-05-30T05:13:14.123Z,45.33
2019-05-30T05:15:42.535Z,68.25
2019-05-30T05:18:12.809Z,27.85
2019-05-30T05:20:41.583Z,21.85
2019-05-30T05:23:09.972Z,40.95
2019-05-30T05:25:38.367Z,27.87
2019-05-30T05:28:06.742Z,72.10
2019-05-30T05:30:35.140Z,169.85
2019-05-30T05:33:03.536Z,104.55
2019-05-30T05:35:32.185Z,33.18
2019-05-30T05:38:00.820Z,22.65
2019-05-30T05:40:29.448Z,12.43
2019-05-30T05:42:57.867Z,15.05
2019-05-30T05:45:26.255Z,11.97
2019-05-30T05:47:54.650Z,12.47
2019-05-30T05:50:23.047Z,12.40
2019-05-30T05:52:51.437Z,12.05
2019-05-30T05:55:20.895Z,16.45
2019-05-30T05:57:49.237Z,13.13
2019-05-30T06:00:19.166Z,11.33
2019-05-30T06:02:47.799Z,11.40
2019-05-30T06:05:16.252Z,11.28
2019-05-30T06:07:44.642Z,9.73
2019-05-30T06:10:13.255Z,12.65
2019-05-30T06:12:41.656Z,12.85
2019-05-30T06:15:10.346Z,11.38
2019-05-30T06:17:38.743Z,13.15
2019-05-30T06:20:07.656Z,11.22
2019-05-30T06:22:36.172Z,12.30
2019-05-30T06:25:06.097Z,12.68
2019-05-30T06:27:34.730Z,10.80
2019-05-30T06:30:04.456Z,13.68
2019-05-30T06:32:33.093Z,11.50
2019-05-30T06:35:01.479Z,11.95
2019-05-30T06:37:29.885Z,12.68
2019-05-30T06:39:58.269Z,13.58
2019-05-30T06:42:28.153Z,13.72
2019-05-30T06:44:56.617Z,14.13
2019-05-30T06:47:26.259Z,15.40
2019-05-30T06:49:54.691Z,13.50
2019-05-30T06:52:23.162Z,14.75
2019-05-30T06:54:51.578Z,14.73
2019-05-30T06:57:21.109Z,14.05
2019-05-30T06:59:49.545Z,14.38
2019-05-30T07:02:18.205Z,11.50
2019-05-30T07:04:51.597Z,12.63
2019-05-30T07:07:16.852Z,11.63
2019-05-30T07:09:45.349Z,12.58
2019-05-30T07:12:13.992Z,12.65
2019-05-30T07:14:42.383Z,11.70
2019-05-30T07:17:11.335Z,14.25
2019-05-30T07:19:39.973Z,13.15
2019-05-30T07:22:08.377Z,12.05
2019-05-30T07:24:36.764Z,11.10
2019-05-30T07:27:05.169Z,14.93
2019-05-30T07:29:34.268Z,13.08
2019-05-30T07:32:02.625Z,12.37
2019-05-30T07:34:32.143Z,15.72
2019-05-30T07:37:00.803Z,19.98
2019-05-30T07:39:31.653Z,14.10
2019-05-30T07:42:06.195Z,13.18
2019-05-30T07:44:30.788Z,14.45
2019-05-30T07:46:59.255Z,15.05
2019-05-30T07:49:28.255Z,13.50
2019-05-30T07:51:56.662Z,15.53
2019-05-30T07:54:25.336Z,15.05
2019-05-30T07:56:54.087Z,13.85
2019-05-30T07:59:22.529Z,14.53
2019-05-30T08:01:51.197Z,12.10
2019-05-30T08:04:20.089Z,13.38
2019-05-30T08:06:48.513Z,12.58
2019-05-30T08:09:16.899Z,14.70
2019-05-30T08:11:45.309Z,16.95
2019-05-30T08:14:13.703Z,15.63
2019-05-30T08:16:42.360Z,15.15
2019-05-30T08:19:11.063Z,15.23
2019-05-30T08:21:39.453Z,11.93
2019-05-30T08:24:07.851Z,10.23
2019-05-30T08:26:36.453Z,13.45
2019-05-30T08:29:04.901Z,12.95
2019-05-30T08:31:34.515Z,8.83
2019-05-30T08:34:02.960Z,10.00
2019-05-30T08:36:31.344Z,8.73
2019-05-30T08:38:59.734Z,10.68
2019-05-30T08:41:29.121Z,9.20
2019-05-30T08:43:57.495Z,9.98
2019-05-30T08:46:25.887Z,12.18
2019-05-30T08:48:54.290Z,10.88
2019-05-30T08:51:22.675Z,10.00
2019-05-30T08:53:51.319Z,9.80
2019-05-30T08:56:19.705Z,9.38
2019-05-30T08:58:48.340Z,8.23
2019-05-30T09:01:16.959Z,9.18
2019-05-30T09:03:46.260Z,7.87
2019-05-30T09:06:14.910Z,9.10
2019-05-30T09:08:44.261Z,8.63
2019-05-30T09:11:12.883Z,8.85
2019-05-30T09:13:42.518Z,9.30
2019-05-30T09:16:11.045Z,6.10
2019-05-30T09:18:40.284Z,6.42
2019-05-30T09:21:09.569Z,6.00
2019-05-30T09:23:39.095Z,6.58
2019-05-30T09:26:08.062Z,5.58
2019-05-30T09:28:36.458Z,4.97
2019-05-30T09:31:05.089Z,4.75
2019-05-30T09:33:33.486Z,5.37
2019-05-30T09:36:12.554Z,6.58
2019-05-30T09:38:32.273Z,4.30
2019-05-30T09:41:00.909Z,4.83
2019-05-30T09:43:29.299Z,4.33
2019-05-30T09:45:57.861Z,4.08
2019-05-30T09:48:26.248Z,3.77
2019-05-30T09:50:54.647Z,4.83
2019-05-30T09:53:23.309Z,4.92
2019-05-30T09:55:53.050Z,2.85
2019-05-30T09:58:21.420Z,4.05
2019-05-30T10:00:50.437Z,3.50
2019-05-30T10:03:19.072Z,4.20
2019-05-30T10:05:48.636Z,3.50
2019-05-30T10:08:17.362Z,3.75
2019-05-30T10:10:47.660Z,2.62
2019-05-30T10:13:15.855Z,3.47
2019-05-30T10:15:45.436Z,3.65
2019-05-30T10:18:14.356Z,2.90
2019-05-30T10:20:42.994Z,4.25
2019-05-30T10:23:11.625Z,2.45
2019-05-30T10:25:40.024Z,2.00
2019-05-30T10:28:08.473Z,2.80
2019-05-30T10:30:36.865Z,4.80
2019-05-30T10:33:05.322Z,4.80
2019-05-30T10:35:33.757Z,5.87
2019-05-30T10:38:02.387Z,4.00
2019-05-30T10:40:32.242Z,3.00
2019-05-30T10:43:00.644Z,2.95
2019-05-30T10:45:29.402Z,3.30
2019-05-30T10:47:57.791Z,3.67
2019-05-30T10:50:26.311Z,2.92
2019-05-30T10:52:55.642Z,3.98
2019-05-30T11:07:16.219Z,1.70
2019-05-30T11:09:48.701Z,2.27
2019-05-30T11:12:17.350Z,3.52
2019-05-30T11:14:46.816Z,3.55
2019-05-30T11:17:15.919Z,2.98
2019-05-30T11:19:44.315Z,2.42
2019-05-30T11:22:12.741Z,3.12
2019-05-30T11:24:41.115Z,1.70
2019-05-30T11:27:09.510Z,1.62
2019-05-30T11:29:37.891Z,2.00
2019-05-30T11:32:06.288Z,1.60
2019-05-30T11:34:34.675Z,2.72
2019-05-30T11:37:18.308Z,3.83
2019-05-30T11:39:33.438Z,3.17
2019-05-30T11:42:01.831Z,1.90
2019-05-30T11:44:30.202Z,1.47
2019-05-30T11:46:59.827Z,2.22
2019-05-30T11:49:28.390Z,2.00
2019-05-30T11:51:57.898Z,3.33
2019-05-30T11:54:26.264Z,2.37
2019-05-30T11:56:54.640Z,3.10
2019-05-30T11:59:23.027Z,3.02
2019-05-30T12:01:52.902Z,2.95
2019-05-30T12:04:21.945Z,3.10
2019-05-30T12:06:51.046Z,2.90
2019-05-30T12:09:20.155Z,2.40
2019-05-30T12:11:48.533Z,4.05
2019-05-30T12:14:16.921Z,3.50
2019-05-30T12:16:45.586Z,3.22
2019-05-30T12:19:13.985Z,2.50
2019-05-30T12:21:42.361Z,3.98
2019-05-30T12:24:10.747Z,3.92
2019-05-30T12:26:39.380Z,2.77
2019-05-30T12:29:07.781Z,2.33
2019-05-30T12:31:36.179Z,4.15
2019-05-30T12:34:04.817Z,3.40
2019-05-30T12:36:33.218Z,3.20
2019-05-30T12:39:02.658Z,4.35
2019-05-30T12:41:31.179Z,3.10
2019-05-30T12:43:59.561Z,2.60
2019-05-30T12:46:27.960Z,3.22
2019-05-30T12:48:57.325Z,4.08
2019-05-30T12:51:25.964Z,2.87
2019-05-30T12:53:54.396Z,3.05
2019-05-30T12:56:22.988Z,3.05
2019-05-30T12:58:51.416Z,4.70
2019-05-30T13:01:19.809Z,4.10
2019-05-30T13:03:48.195Z,3.67
2019-05-30T13:06:16.590Z,3.20
2019-05-30T13:08:44.972Z,2.60
2019-05-30T13:11:13.371Z,2.62
2019-05-30T13:13:42.004Z,3.83
2019-05-30T13:16:10.648Z,3.22
2019-05-30T13:18:39.042Z,3.40
2019-05-30T13:21:07.421Z,1.98
2019-05-30T13:23:35.917Z,3.35
2019-05-30T13:26:05.806Z,2.15
2019-05-30T13:28:34.359Z,2.05
2019-05-30T13:31:02.705Z,2.75
2019-05-30T13:33:31.152Z,2.58
2019-05-30T13:36:00.916Z,2.95
2019-05-30T13:38:29.652Z,2.10
2019-05-30T13:40:59.297Z,2.05
2019-05-30T13:43:28.193Z,2.70
2019-05-30T13:45:56.537Z,3.62
2019-05-30T13:48:25.175Z,3.70
2019-05-30T13:50:53.808Z,2.20
2019-05-30T13:53:22.448Z,2.60
2019-05-30T13:55:51.081Z,4.42
2019-05-30T13:58:19.500Z,4.53
2019-05-30T14:00:47.866Z,4.15
2019-05-30T14:03:16.263Z,3.20
2019-05-30T14:05:44.641Z,2.42
2019-05-30T14:08:16.379Z,2.08
2019-05-30T14:10:43.151Z,2.17
2019-05-30T14:13:11.539Z,2.45
2019-05-30T14:15:39.922Z,2.20
2019-05-30T14:18:09.082Z,2.80
2019-05-30T14:20:37.479Z,2.75
2019-05-30T14:23:07.291Z,2.12
2019-05-30T14:25:35.923Z,3.45
2019-05-30T14:28:05.581Z,1.92
2019-05-30T14:30:34.050Z,1.75
2019-05-30T14:33:02.445Z,2.92
2019-05-30T14:35:30.820Z,2.47
2019-05-30T14:37:59.207Z,2.95
2019-05-30T14:40:27.973Z,1.60
2019-05-30T14:42:56.359Z,1.72
2019-05-30T14:45:27.785Z,3.22
2019-05-30T14:47:55.332Z,1.65
2019-05-30T14:50:24.205Z,3.65
2019-05-30T14:52:52.606Z,1.62
2019-05-30T14:55:21.223Z,2.20
2019-05-30T14:57:49.861Z,2.12
2019-05-30T15:00:18.732Z,2.58
2019-05-30T15:02:47.861Z,1.72
2019-05-30T15:05:16.494Z,1.85
2019-05-30T15:07:44.869Z,3.98
2019-05-30T15:10:13.784Z,1.90
2019-05-30T15:12:42.309Z,2.42
2019-05-30T15:15:14.480Z,3.12
2019-05-30T15:17:41.468Z,1.35
2019-05-30T15:20:13.683Z,3.30
2019-05-30T15:22:42.226Z,2.10
2019-05-30T15:25:12.069Z,1.60
2019-05-30T15:27:41.296Z,2.05
2019-05-30T15:30:12.692Z,1.98
2019-05-30T15:32:41.378Z,1.92
2019-05-30T15:35:10.987Z,1.92
2019-05-30T15:37:40.903Z,2.55
2019-05-30T15:40:10.968Z,1.62
2019-05-30T15:42:39.376Z,1.82
2019-05-30T15:45:10.082Z,1.67
2019-05-30T15:47:38.750Z,2.60
2019-05-30T15:50:08.326Z,2.10
2019-05-30T15:52:37.019Z,5.70
2019-05-30T15:55:07.242Z,1.40
2019-05-30T15:57:35.627Z,1.62
2019-05-30T16:00:07.459Z,1.60
2019-05-30T16:02:35.841Z,1.55
2019-05-30T16:05:06.279Z,1.92
2019-05-30T16:07:34.662Z,1.70
2019-05-30T16:10:04.859Z,1.45
2019-05-30T16:12:33.489Z,1.30
2019-05-30T16:15:02.116Z,2.25
2019-05-30T16:17:30.752Z,2.12
2019-05-30T16:19:59.148Z,1.32
2019-05-30T16:22:27.784Z,2.20
2019-05-30T16:24:56.178Z,3.80
2019-05-30T16:27:24.557Z,1.72
2019-05-30T16:29:52.942Z,1.90
2019-05-30T16:32:22.199Z,2.95
2019-05-30T16:34:50.560Z,2.55
2019-05-30T16:37:20.094Z,1.37
2019-05-30T16:40:04.378Z,2.90
2019-05-30T16:42:18.845Z,1.40
2019-05-30T16:44:47.241Z,1.55
2019-05-30T16:47:16.551Z,2.25
2019-05-30T16:49:45.013Z,3.08
2019-05-30T16:52:14.700Z,1.40
2019-05-30T16:54:43.346Z,1.72
2019-05-30T16:57:11.734Z,2.05
2019-05-30T16:59:40.356Z,1.95
2019-05-30T17:02:08.985Z,2.35
2019-05-30T17:04:37.423Z,1.70
2019-05-30T17:07:05.847Z,1.40
2019-05-30T17:09:34.478Z,2.37
2019-05-30T17:12:02.886Z,1.82
2019-05-30T17:14:31.285Z,2.00
2019-05-30T17:17:02.709Z,2.27
2019-05-30T17:19:29.957Z,2.00
2019-05-30T17:21:58.350Z,1.32
2019-05-30T17:24:27.288Z,1.17
2019-05-30T17:26:55.797Z,1.40
2019-05-30T17:29:24.187Z,1.92
2019-05-30T17:31:52.575Z,2.62
2019-05-30T17:34:21.822Z,1.17
2019-05-30T17:36:50.238Z,1.40
2019-05-30T17:39:18.956Z,1.65
2019-05-30T17:41:47.317Z,2.50
2019-05-30T17:44:15.927Z,2.98
2019-05-30T17:46:44.328Z,1.27
2019-05-30T17:49:12.820Z,3.15
2019-05-30T17:51:41.198Z,2.17
2019-05-30T17:54:09.572Z,3.42
2019-05-30T17:56:37.931Z,3.30
2019-05-30T17:59:06.335Z,1.07
2019-05-30T18:01:34.726Z,1.00
2019-05-30T18:04:03.119Z,3.02
2019-05-30T18:06:31.507Z,3.17
2019-05-30T18:08:59.928Z,2.10
2019-05-30T18:11:29.015Z,2.47
2019-05-30T18:13:57.449Z,1.32
2019-05-30T18:16:27.087Z,1.72
2019-05-30T18:18:55.515Z,2.30
2019-05-30T18:21:23.915Z,2.50
2019-05-30T18:23:52.299Z,1.47
2019-05-30T18:26:21.457Z,3.33
2019-05-30T18:28:49.876Z,2.58
2019-05-30T18:31:18.268Z,3.72
2019-05-30T18:33:46.652Z,4.58
2019-05-30T18:36:15.035Z,2.58
2019-05-30T18:38:43.438Z,2.40
2019-05-30T18:41:15.843Z,1.70
2019-05-30T18:43:41.944Z,3.08
2019-05-30T18:46:10.348Z,1.32
2019-05-30T18:48:38.894Z,1.32
2019-05-30T18:51:07.346Z,3.00
2019-05-30T18:53:36.707Z,2.20
2019-05-30T18:56:06.530Z,1.65
2019-05-30T18:58:34.871Z,2.47
2019-05-30T19:01:03.493Z,3.33
2019-05-30T19:03:33.336Z,4.08
2019-05-30T19:06:01.805Z,2.87
2019-05-30T19:08:30.215Z,1.90
2019-05-30T19:10:58.634Z,4.42
2019-05-30T19:13:27.038Z,2.00
2019-05-30T19:15:55.581Z,3.33
2019-05-30T19:18:25.268Z,3.95
2019-05-30T19:20:53.791Z,3.55
2019-05-30T19:23:22.202Z,3.50
2019-05-30T19:25:50.809Z,3.02
2019-05-30T19:28:19.210Z,3.00
2019-05-30T19:30:47.899Z,2.10
2019-05-30T19:33:20.371Z,3.30
2019-05-30T19:35:49.445Z,2.12
2019-05-30T19:38:16.577Z,2.70
2019-05-30T19:40:45.196Z,4.00
2019-05-30T19:43:13.702Z,2.35
2019-05-30T19:45:42.101Z,3.30
2019-05-30T19:48:10.526Z,3.40
2019-05-30T19:50:38.972Z,2.62
2019-05-30T19:53:07.360Z,2.67
2019-05-30T19:55:35.782Z,3.40
2019-05-30T19:58:04.560Z,3.30
2019-05-30T20:00:35.360Z,3.50
2019-05-30T20:03:03.181Z,4.28
2019-05-30T20:05:32.565Z,4.10
2019-05-30T20:08:00.970Z,3.47
2019-05-30T20:10:30.673Z,3.70
2019-05-30T20:12:59.243Z,4.53
2019-05-30T20:15:29.315Z,6.45
2019-05-30T20:18:00.451Z,5.15
2019-05-30T20:20:28.836Z,3.77
2019-05-30T20:22:57.318Z,4.22
2019-05-30T20:25:25.891Z,5.20
2019-05-30T20:27:54.339Z,5.10
2019-05-30T20:30:24.239Z,4.08
2019-05-30T20:32:52.681Z,5.25
2019-05-30T20:35:21.164Z,6.03
2019-05-30T20:37:49.583Z,6.00
2019-05-30T20:40:18.834Z,7.28
2019-05-30T20:42:47.522Z,5.08
2019-05-30T20:45:16.224Z,5.15
2019-05-30T20:47:44.640Z,4.95
2019-05-30T20:50:15.054Z,3.50
2019-05-30T20:52:45.618Z,6.62
2019-05-30T20:55:14.698Z,5.60
2019-05-30T20:57:43.127Z,5.33
2019-05-30T21:00:13.069Z,3.83
2019-05-30T21:02:43.514Z,3.80
2019-05-30T21:05:12.155Z,3.90
2019-05-30T21:07:44.325Z,3.50
2019-05-30T21:10:14.721Z,3.40
2019-05-30T21:12:46.880Z,2.67
2019-05-30T21:15:14.954Z,6.62
2019-05-30T21:17:46.164Z,3.67
2019-05-30T21:20:15.147Z,4.50
2019-05-30T21:22:44.646Z,5.12
2019-05-30T21:25:13.440Z,3.85
2019-05-30T21:27:43.037Z,2.30
2019-05-30T21:30:11.902Z,4.67
2019-05-30T21:32:41.701Z,3.75
2019-05-30T21:35:10.953Z,3.17
2019-05-30T21:37:39.721Z,3.37
2019-05-30T21:40:08.416Z,3.75
2019-05-30T21:42:51.509Z,4.53
2019-05-30T21:45:08.185Z,4.10
2019-05-30T21:47:36.605Z,3.15
2019-05-30T21:50:08.224Z,3.40
2019-05-30T21:52:36.725Z,4.33
2019-05-30T21:55:08.616Z,4.83
2019-05-30T21:57:37.086Z,3.60
2019-05-30T22:00:14.199Z,4.70
2019-05-30T22:02:46.636Z,3.55
2019-05-30T22:05:15.231Z,3.12
2019-05-30T22:07:44.974Z,4.97
2019-05-30T22:10:13.585Z,4.22
2019-05-30T22:12:42.053Z,3.85
2019-05-30T22:15:10.586Z,4.87
2019-05-30T22:17:38.995Z,4.12
2019-05-30T22:20:07.784Z,4.45
2019-05-30T22:22:36.204Z,6.40
2019-05-30T22:25:06.035Z,4.33
2019-05-30T22:27:34.471Z,4.20
2019-05-30T22:30:02.965Z,4.92
2019-05-30T22:32:31.380Z,3.35
2019-05-30T22:34:59.839Z,4.00
2019-05-30T22:37:28.231Z,4.25
2019-05-30T22:39:56.659Z,2.80
2019-05-30T22:42:25.051Z,3.08
2019-05-30T22:44:53.453Z,3.47
2019-05-30T22:47:21.887Z,2.75
2019-05-30T22:49:50.770Z,4.12
2019-05-30T22:52:19.203Z,3.02
2019-05-30T22:54:47.638Z,4.70
2019-05-30T22:57:16.004Z,3.12
2019-05-30T22:59:44.741Z,2.45
2019-05-30T23:02:13.113Z,4.37
2019-05-30T23:04:41.558Z,3.85
2019-05-30T23:07:09.961Z,2.95
2019-05-30T23:09:38.369Z,3.27
2019-05-30T23:12:06.860Z,3.70
2019-05-30T23:14:35.261Z,3.20
2019-05-30T23:17:03.678Z,3.52
2019-05-30T23:19:32.111Z,2.77
2019-05-30T23:22:00.523Z,3.02
2019-05-30T23:24:28.954Z,2.92
2019-05-30T23:26:57.940Z,4.35
2019-05-30T23:29:26.384Z,3.65
2019-05-30T23:31:56.082Z,4.00
2019-05-30T23:34:24.616Z,6.05
2019-05-30T23:36:53.017Z,3.35
2019-05-30T23:39:21.430Z,3.20
2019-05-30T23:41:51.034Z,3.10
2019-05-30T23:44:19.635Z,2.80
2019-05-30T23:46:49.262Z,4.35
2019-05-30T23:49:17.702Z,2.70
2019-05-30T23:51:46.127Z,3.42
2019-05-30T23:54:14.551Z,2.80
2019-05-30T23:56:42.939Z,3.05
2019-05-30T23:59:11.371Z,5.97
